This is the latest recevied weather packets stored in our database for station/object K5NWZ. If no packets are shown the sender has not sent any weather packets the latest 1 day(s).
| Time | Temp. | Humidity | Pressure | Rain* | Wind** | Luminosity | Snow |
|---|---|---|---|---|---|---|---|
| 1778015829 | 0.56° C | 96% | 1022.6 hPa | 1.27 mm | 1.34 m/s, 326° | 112 W/m² | - |
| 1778015526 | 0.56° C | 96% | 1022.5 hPa | 1.27 mm | 1.34 m/s, 283° | 114 W/m² | - |
| 1778015223 | 0.56° C | 96% | 1022.7 hPa | 1.78 mm | 0.89 m/s, 322° | 76 W/m² | - |
| 1778014919 | 0.56° C | 96% | 1022.8 hPa | 1.78 mm | 0.89 m/s, 338° | 85 W/m² | - |
| 1778014617 | 0.56° C | 96% | 1023 hPa | 0 mm | 0.89 m/s, 280° | 110 W/m² | - |
| 1778014314 | 0.56° C | 96% | 1022.8 hPa | 1.27 mm | 0.89 m/s, 303° | 94 W/m² | - |
| 1778014010 | 0.56° C | 96% | 1022.8 hPa | 1.27 mm | 1.34 m/s, 314° | 80 W/m² | - |
| 1778013709 | 0.56° C | 96% | 1022.8 hPa | 0 mm | 0.89 m/s, 319° | 79 W/m² | - |
| 1778013405 | 0.56° C | 96% | 1023.1 hPa | 1.78 mm | 0.45 m/s, 329° | 70 W/m² | - |
| 1778013097 | 0.56° C | 96% | 1023.2 hPa | 1.78 mm | 0.45 m/s, 303° | 83 W/m² | - |
| 1778012792 | 0.56° C | 96% | 1023.4 hPa | 1.27 mm | 0.89 m/s, 333° | 93 W/m² | - |
| 1778012488 | 0.56° C | 96% | 1023.7 hPa | 3.05 mm | 0.45 m/s, 308° | 104 W/m² | - |
| 1778012185 | 0.56° C | 96% | 1023.4 hPa | 1.78 mm | 0.45 m/s, 25° | 88 W/m² | - |
| 1778011883 | 0.56° C | 96% | 1023.5 hPa | 0 mm | 1.34 m/s, 321° | 104 W/m² | - |
| 1778011581 | 0.56° C | 95% | 1023.3 hPa | 0 mm | 0.45 m/s, 326° | 90 W/m² | - |
| 1778011277 | 0.56° C | 95% | 1023.4 hPa | 0 mm | 0.89 m/s, 328° | 93 W/m² | - |
| 1778010973 | 0.56° C | 95% | 1023.4 hPa | 1.27 mm | 1.34 m/s, 300° | 95 W/m² | - |
| 1778010671 | 0.56° C | 95% | 1023.7 hPa | 0 mm | 0.45 m/s, 315° | 126 W/m² | - |
| 1778010368 | 0.56° C | 95% | 1023.5 hPa | 1.78 mm | 1.34 m/s, 286° | 144 W/m² | - |
| 1778010063 | 0.56° C | 95% | 1023.7 hPa | 1.78 mm | 1.79 m/s, 281° | 143 W/m² | - |
| 1778009761 | 0.56° C | 95% | 1023.5 hPa | 1.78 mm | 1.79 m/s, 288° | 120 W/m² | - |
| 1778009458 | 1.11° C | 95% | 1023.5 hPa | 1.78 mm | 0.89 m/s, 320° | 124 W/m² | - |
| 1778009157 | 1.11° C | 95% | 1023.5 hPa | 1.27 mm | 0.89 m/s, 310° | 132 W/m² | - |
| 1778008854 | 1.11° C | 94% | 1023.7 hPa | 1.27 mm | 0.89 m/s, 331° | 146 W/m² | - |
| 1778008552 | 1.11° C | 94% | 1023.4 hPa | 1.78 mm | 2.68 m/s, 321° | 111 W/m² | - |
* Rain latest hour (hover to see other rain measurements)
** Current wind speed in m/s (hover to see current wind gust speed)